Flight Track Log - Related Links

Times and Time Zones

All times are in EDT time to prevent confusion due to time zone crossing. See the ASQ4549 flight status page for this flight to view local times or setup timezone preferences in your user account.

Time Position Orientation Groundspeed Altitude Reporting Facility
EDT Latitude Longitude Course Direction KTS MPH feet Rate Location/Type
Sat 03:43:00 PM 19.5178 -104.3827 28° Northeast  Level FlightAware Approximate
Sat 03:44:00 PM 19.6083 -104.3325 28° Northeast  Level FlightAware Approximate
Sat 03:45:00 PM 19.6995 -104.2836 25° Northeast  Level FlightAware Approximate
Sat 03:46:00 PM 19.7919 -104.2374 25° Northeast  Level FlightAware Approximate
Sat 03:47:00 PM 19.8843 -104.1912 25° Northeast  Level FlightAware Approximate
Sat 03:48:00 PM 19.9738 -104.1390 29° Northeast  Level FlightAware Approximate
Sat 03:49:00 PM 20.0425 -104.0594 50° Northeast  Level FlightAware Approximate
Sat 03:50:00 PM 20.0955 -103.9667 60° Northeast  Level FlightAware Approximate
Sat 03:51:00 PM 20.1468 -103.8726 60° Northeast  Level FlightAware Approximate
Sat 03:52:00 PM 20.2072 -103.7850 53° Northeast  Level FlightAware Approximate
Sat 03:53:00 PM 20.2679 -103.6975 62° Northeast  Level FlightAware Approximate
Sat 03:54:00 PM 20.3214 -103.6048 57° Northeast  Level FlightAware Approximate
Sat 03:55:00 PM 20.3775 -103.5137 57° Northeast  Level FlightAware Approximate
Sat 03:56:00 PM 20.4358 -103.4245 51° Northeast  Level FlightAware Approximate
Sat 03:57:00 PM 20.4951 -103.3359 57° Northeast  Level FlightAware Approximate
Sat 03:58:00 PM 20.5772 -103.2849 13° North  Level FlightAware Approximate
Sat 03:59:00 PM 20.6773 -103.2632 11° North  Level FlightAware Approximate
Sat 04:00:00 PM 20.7775 -103.2417 11° North  Level FlightAware Approximate
Sat 04:01:00 PM 20.8745 -103.2097 15° North  Level FlightAware Approximate
Sat 04:02:00 PM 20.9733 -103.1819 12° North  Level FlightAware Approximate
Sat 04:03:00 PM 21.0733 -103.1596 12° North  Level FlightAware Approximate
Sat 04:04:00 PM 21.1728 -103.1352 14° North  Level FlightAware Approximate
Sat 04:05:00 PM 21.2720 -103.1090 14° North  Level FlightAware Approximate
Sat 04:06:00 PM 21.3712 -103.0827 14° North  Level FlightAware Approximate
Sat 04:07:00 PM 21.4703 -103.0565 14° North  Level FlightAware Approximate
Sat 04:08:00 PM 21.5695 -103.0302 14° North  Level FlightAware Approximate
Sat 04:09:00 PM 21.6686 -103.0038 14° North  Level FlightAware Approximate
Sat 04:10:00 PM 21.7678 -102.9775 14° North  Level FlightAware Approximate
Sat 04:11:00 PM 21.8669 -102.9510 14° North  Level FlightAware Approximate
Sat 04:12:00 PM 21.9660 -102.9244 14° North  Level FlightAware Approximate
Sat 04:13:00 PM 22.0651 -102.8975 14° North  Level FlightAware Approximate
Sat 04:14:00 PM 22.1641 -102.8705 14° North  Level FlightAware Approximate
Sat 04:15:00 PM 22.2631 -102.8434 14° North  Level FlightAware Approximate
Sat 04:16:00 PM 22.3624 -102.8174 13° North  Level FlightAware Approximate
Sat 04:17:00 PM 22.4617 -102.7919 13° North  Level FlightAware Approximate
Sat 04:18:00 PM 22.5611 -102.7663 13° North  Level FlightAware Approximate
Sat 04:19:00 PM 22.6605 -102.7408 13° North  Level FlightAware Approximate
Sat 04:20:00 PM 22.7598 -102.7152 13° North  Level FlightAware Approximate
Sat 04:21:00 PM 22.8592 -102.6896 13° North  Level FlightAware Approximate
Sat 04:22:00 PM 22.9495 -102.6400 31° Northeast  Level FlightAware Approximate
Sat 04:23:00 PM 23.0370 -102.5826 31° Northeast  Level FlightAware Approximate
Sat 04:24:00 PM 23.1244 -102.5252 31° Northeast  Level FlightAware Approximate
Sat 04:25:00 PM 23.2118 -102.4677 31° Northeast  Level FlightAware Approximate
Sat 04:26:00 PM 23.2991 -102.4101 31° Northeast  Level FlightAware Approximate
Sat 04:27:00 PM 23.3864 -102.3524 31° Northeast  Level FlightAware Approximate
Sat 04:28:00 PM 23.4738 -102.2947 31° Northeast  Level FlightAware Approximate
Sat 04:29:00 PM 23.5611 -102.2369 31° Northeast  Level FlightAware Approximate
Sat 04:30:00 PM 23.6484 -102.1791 31° Northeast  Level FlightAware Approximate
Sat 04:31:00 PM 23.7359 -102.1215 31° Northeast  Level FlightAware Approximate
Sat 04:32:00 PM 23.8233 -102.0638 31° Northeast  Level FlightAware Approximate
Sat 04:33:00 PM 23.9107 -102.0061 31° Northeast  Level FlightAware Approximate
Sat 04:34:00 PM 23.9981 -101.9482 31° Northeast  Level FlightAware Approximate
Sat 04:35:00 PM 24.0855 -101.8903 31° Northeast  Level FlightAware Approximate
Sat 04:36:00 PM 24.1729 -101.8323 31° Northeast  Level FlightAware Approximate
Sat 04:37:00 PM 24.2602 -101.7743 31° Northeast  Level FlightAware Approximate
Sat 04:38:00 PM 24.3475 -101.7161 31° Northeast  Level FlightAware Approximate
Sat 04:39:00 PM 24.4348 -101.6579 31° Northeast  Level FlightAware Approximate
Sat 04:40:00 PM 24.5221 -101.5996 31° Northeast  Level FlightAware Approximate
Sat 04:41:00 PM 24.6093 -101.5412 31° Northeast  Level FlightAware Approximate
Sat 04:42:00 PM 24.6965 -101.4827 31° Northeast  Level FlightAware Approximate
Sat 04:43:00 PM 24.7837 -101.4242 31° Northeast  Level FlightAware Approximate
Sat 04:44:00 PM 24.8709 -101.3655 31° Northeast  Level FlightAware Approximate
Sat 04:45:00 PM 24.9580 -101.3068 31° Northeast  Level FlightAware Approximate
Sat 04:46:00 PM 25.0452 -101.2480 31° Northeast  Level FlightAware Approximate
Sat 04:47:00 PM 25.1323 -101.1891 31° Northeast  Level FlightAware Approximate
Sat 04:48:00 PM 25.2193 -101.1301 31° Northeast  Level FlightAware Approximate
Sat 04:49:00 PM 25.3064 -101.0711 32° Northeast  Level FlightAware Approximate
Sat 04:50:00 PM 25.3934 -101.0119 32° Northeast  Level FlightAware Approximate
Sat 04:51:00 PM 25.4804 -100.9527 32° Northeast  Level FlightAware Approximate
Sat 04:52:00 PM 25.5455 -100.8744 72° East  Level FlightAware Approximate
Sat 04:53:00 PM 25.5766 -100.7666 72° East  Level FlightAware Approximate
Sat 04:54:00 PM 25.6076 -100.6587 72° East  Level FlightAware Approximate
Sat 04:55:00 PM 25.6386 -100.5507 72° East  Level FlightAware Approximate
Sat 04:56:00 PM 25.6694 -100.4427 72° East  Level FlightAware Approximate
Sat 04:57:00 PM 25.7002 -100.3346 72° East  Level FlightAware Approximate
Sat 04:58:00 PM 25.7309 -100.2265 72° East  Level FlightAware Approximate
Sat 04:59:00 PM 25.7615 -100.1183 73° East  Level FlightAware Approximate
Sat 05:00:00 PM 25.8239 -100.0305 48° Northeast  Level FlightAware Approximate
Sat 05:01:00 PM 25.8928 -99.9467 48° Northeast  Level FlightAware Approximate
Sat 05:02:00 PM 25.9616 -99.8627 48° Northeast  Level FlightAware Approximate
Sat 05:02:56 PM 25.9586 -99.8522 48° Northeast 436 502 35,000  Level Houston Center
Sat 05:03:00 PM 26.0304 -99.7787 48° Northeast  Level FlightAware Approximate
Sat 05:03:58 PM 26.0572 -99.7325 47° Northeast 438 504 35,000  Level Houston Center
Sat 05:04:00 PM 26.0991 -99.6946 48° Northeast  Level FlightAware Approximate
Sat 05:05:00 PM 26.1678 -99.6104 48° Northeast  Level FlightAware Approximate
Sat 05:05:00 PM 26.1397 -99.6331 47° Northeast 438 504 35,000  Level Houston Center
Sat 05:06:00 PM 26.2364 -99.5261 48° Northeast  Level FlightAware Approximate
Sat 05:06:02 PM 26.2214 -99.5342 47° Northeast 436 502 35,000  Level Houston Center
Sat 05:07:00 PM 26.3050 -99.4417 48° Northeast  Level FlightAware Approximate
Sat 05:07:03 PM 26.3044 -99.4358 47° Northeast 437 503 35,000  Level Houston Center
Sat 05:08:00 PM 26.3735 -99.3572 48° Northeast  Level FlightAware Approximate
Sat 05:08:05 PM 26.3864 -99.3358 48° Northeast 439 505 35,000  Level Houston Center
Sat 05:09:07 PM 26.4681 -99.2350 48° Northeast 439 505 35,000 -290 Level Houston Center
Sat 05:10:09 PM 26.5503 -99.1356 47° Northeast 439 505 34,400 -976 Descending Houston Center
Sat 05:11:10 PM 26.6494 -99.0133 48° Northeast 443 510 33,000 -683 Descending Houston Center
Sat 05:12:12 PM 26.7294 -98.9144 48° Northeast 434 499 33,000  Level Houston Center
Sat 05:13:14 PM 26.8072 -98.8181 48° Northeast 421 484 33,000  Level Houston Center
Sat 05:14:15 PM 26.8842 -98.7231 48° Northeast 416 479 33,000  Level Houston Center
Sat 05:15:17 PM 26.9608 -98.6297 47° Northeast 411 473 33,000  Level Houston Center
Sat 05:16:19 PM 27.0372 -98.5347 48° Northeast 411 473 33,000  Level Houston Center
Sat 05:17:21 PM 27.1269 -98.4228 48° Northeast 406 467 33,000  Level Houston Center
Sat 05:18:22 PM 27.2017 -98.3281 48° Northeast 406 467 33,000  Level Houston Center
Sat 05:19:24 PM 27.2769 -98.2356 48° Northeast 405 466 33,000  Level Houston Center
Sat 05:20:26 PM 27.3519 -98.1406 48° Northeast 406 467 33,000  Level Houston Center
Sat 05:21:27 PM 27.4283 -98.0447 48° Northeast 410 472 33,000  Level Houston Center
Sat 05:22:29 PM 27.5061 -97.9483 48° Northeast 416 479 33,000  Level Houston Center
Sat 05:23:31 PM 27.5972 -97.8317 49° Northeast 415 478 33,000  Level Houston Center
Sat 05:24:32 PM 27.6725 -97.7375 48° Northeast 408 470 33,000  Level Houston Center
Sat 05:25:34 PM 27.7472 -97.6406 49° Northeast 410 472 33,000  Level Houston Center
Sat 05:26:36 PM 27.8228 -97.5458 48° Northeast 408 470 33,000  Level Houston Center
Sat 05:27:38 PM 27.9211 -97.4911 26° Northeast 402 463 33,000  Level Houston Center
Sat 05:28:39 PM 28.0289 -97.4961 358° North 399 459 33,000  Level Houston Center
Sat 05:29:41 PM 28.1636 -97.5019 358° North 403 464 33,000  Level Houston Center
Sat 05:30:43 PM 28.2736 -97.4897 North 401 461 33,000  Level Houston Center
Sat 05:31:44 PM 28.3844 -97.4758 North 401 461 33,000  Level Houston Center
Sat 05:32:46 PM 28.4972 -97.4594 North 405 466 33,000  Level Houston Center
Sat 05:33:48 PM 28.6067 -97.4403 North 400 460 33,000  Level Houston Center
Sat 05:34:49 PM 28.7158 -97.4128 12° North 401 461 33,000  Level Houston Center
Sat 05:35:51 PM 28.8097 -97.3475 31° Northeast 407 468 33,000  Level Houston Center
Sat 05:36:52 PM 28.8892 -97.2206 54° Northeast 410 472 33,000 -927 Level Houston Center
Sat 05:37:54 PM 28.9592 -97.1136 53° Northeast 420 483 31,100 -2,177 Descending Houston Center
Sat 05:38:56 PM 29.0428 -97.0056 48° Northeast 449 517 28,500 -2,439 Descending Houston Center
Sat 05:39:57 PM 29.1250 -96.8883 51° Northeast 471 542 26,100 -2,293 Descending Houston Center
Sat 05:40:59 PM 29.1936 -96.7683 57° Northeast 464 534 23,800 -2,390 Descending Houston Center
Sat 05:42:00 PM 29.2603 -96.6556 56° Northeast 440 506 21,200 -2,741 Descending Houston Center
Sat 05:42:55 PM 29.3294 -96.5381 56° Northeast 418 481 18,500 -2,710 Descending Houston Center
Sat 05:44:04 PM 29.3994 -96.4181 56° Northeast 406 467 15,600 -2,492 Descending Houston Center
Sat 05:45:05 PM 29.4586 -96.3167 56° Northeast 390 449 13,100 -1,805 Descending Houston Center
Sat 05:46:07 PM 29.5147 -96.2203 56° Northeast 366 421 11,900 -634 Descending Houston Center
Sat 05:47:08 PM 29.5653 -96.1289 58° Northeast 342 394 11,800 -537 Descending Houston Center
Sat 05:48:10 PM 29.6169 -96.0244 60° Northeast 374 430 10,800 -919 Descending Houston Center
Sat 05:49:12 PM 29.6800 -95.9014 59° Northeast 392 451 9,900 -439 Descending Houston Center
Sat 05:50:13 PM 29.7328 -95.7958 60° Northeast 382 440 9,900  Level Houston Center
Sat 05:51:15 PM 29.7856 -95.6894 60° Northeast 381 438 9,900  Level Houston Center
Sat 05:52:16 PM 29.8394 -95.5831 60° Northeast 383 441 9,900 -537 Level Houston Center
Sat 05:53:18 PM 29.8819 -95.4961 61° Northeast 312 359 8,800 -1,415 Descending Houston Center
Sat 05:54:19 PM 29.9531 -95.4500 29° Northeast 298 343 7,000 -1,161 Descending Houston Center
Sat 05:54:51 PM 30.0033 -95.4303 19° North 285 328 7,000 -97 Level Houston Center
Sat 05:55:21 PM 30.0286 -95.4219 16° North 287 330 6,900  Descending Houston Center
Sat 05:55:58 PM 30.0836 -95.3917 25° Northeast 292 336 7,000 65 Climbing Houston Center
Sat 05:56:53 PM 30.1056 -95.3092 73° East 301 346 7,000 -635 Level Houston Center
Sat 05:57:23 PM 30.1056 -95.2622 90° East 296 341 6,100 -1,696 Descending Houston Center
Sat 05:58:25 PM 30.1053 -95.1692 90° East 290 334 4,400 -1,024 Descending Houston Center
Sat 05:59:26 PM 30.0633 -95.1133 131° Southeast 253 291 4,000 -396 Descending Houston Center
Sat 05:59:56 PM 30.0289 -95.1158 184° South 226 260 3,800 -387 Descending Houston Center
Sat 06:00:28 PM 30.0058 -95.1278 204° Southwest 219 252 3,600 -839 Descending Houston Center
Sat 06:01:29 PM 29.9931 -95.1869 256° West 201 231 2,500 -1,024 Descending Houston Center
Sat 06:02:31 PM 29.9936 -95.2436 271° West 190 219 1,500 -878 Descending Houston Center
Sat 06:03:32 PM 29.9936 -95.2869 270° West 162 186 700 -590 Descending Houston Center
Sat 06:04:33 PM 29.9928 -95.3389 269° West 152 175 300 -393 Descending Houston Center

Login

Don't have an account? Register now (free) for customized features, flight alerts, and more!